sensor_id;sensor_type;location;lat;lon;timestamp;pressure;altitude;pressure_sealevel;temperature;humidity
74524;BME280;63074;44.696;10.358;2022-10-22T00:02:21;100072.16;;;15.13;100.00
74524;BME280;63074;44.696;10.358;2022-10-22T00:04:47;100094.41;;;14.73;100.00
74524;BME280;63074;44.696;10.358;2022-10-22T00:07:14;100122.28;;;14.73;100.00
74524;BME280;63074;44.696;10.358;2022-10-22T00:09:40;100130.81;;;14.97;100.00
74524;BME280;63074;44.696;10.358;2022-10-22T00:12:05;100118.72;;;15.15;100.00
74524;BME280;63074;44.696;10.358;2022-10-22T00:14:31;100096.72;;;14.96;100.00
74524;BME280;63074;44.696;10.358;2022-10-22T00:16:56;100100.25;;;14.97;100.00
74524;BME280;63074;44.696;10.358;2022-10-22T00:19:25;100094.31;;;15.05;100.00
74524;BME280;63074;44.696;10.358;2022-10-22T00:21:51;100090.53;;;15.06;100.00
74524;BME280;63074;44.696;10.358;2022-10-22T00:24:16;100081.94;;;15.19;100.00
74524;BME280;63074;44.696;10.358;2022-10-22T00:26:42;100089.75;;;15.15;100.00
74524;BME280;63074;44.696;10.358;2022-10-22T00:29:07;100083.53;;;15.15;100.00
74524;BME280;63074;44.696;10.358;2022-10-22T00:31:33;100076.28;;;15.31;100.00
74524;BME280;63074;44.696;10.358;2022-10-22T00:34:00;100068.16;;;15.36;100.00
74524;BME280;63074;44.696;10.358;2022-10-22T00:36:26;100070.06;;;15.30;100.00
74524;BME280;63074;44.696;10.358;2022-10-22T00:38:52;100080.63;;;15.37;100.00
74524;BME280;63074;44.696;10.358;2022-10-22T00:41:17;100077.16;;;15.46;100.00
74524;BME280;63074;44.696;10.358;2022-10-22T00:43:54;100077.97;;;15.47;100.00
74524;BME280;63074;44.696;10.358;2022-10-22T00:46:19;100073.16;;;15.59;100.00
74524;BME280;63074;44.696;10.358;2022-10-22T00:48:45;100072.75;;;15.25;100.00
74524;BME280;63074;44.696;10.358;2022-10-22T00:51:10;100079.91;;;14.89;100.00
74524;BME280;63074;44.696;10.358;2022-10-22T00:53:41;100079.69;;;15.01;100.00
74524;BME280;63074;44.696;10.358;2022-10-22T00:56:08;100040.56;;;15.29;100.00
74524;BME280;63074;44.696;10.358;2022-10-22T00:58:38;100027.56;;;15.41;100.00
74524;BME280;63074;44.696;10.358;2022-10-22T01:01:08;100026.50;;;15.47;100.00
74524;BME280;63074;44.696;10.358;2022-10-22T01:03:37;100025.94;;;15.35;100.00
74524;BME280;63074;44.696;10.358;2022-10-22T01:06:04;100020.53;;;15.40;100.00
74524;BME280;63074;44.696;10.358;2022-10-22T01:14:08;100050.78;;;15.11;100.00
74524;BME280;63074;44.696;10.358;2022-10-22T01:16:58;100051.00;;;15.00;100.00
74524;BME280;63074;44.696;10.358;2022-10-22T01:22:33;100053.44;;;14.96;100.00
74524;BME280;63074;44.696;10.358;2022-10-22T01:30:35;100058.28;;;14.94;100.00
74524;BME280;63074;44.696;10.358;2022-10-22T01:33:05;100047.78;;;15.08;100.00
74524;BME280;63074;44.696;10.358;2022-10-22T01:35:42;100060.19;;;14.94;100.00
74524;BME280;63074;44.696;10.358;2022-10-22T01:38:12;100059.09;;;14.95;100.00
74524;BME280;63074;44.696;10.358;2022-10-22T01:40:40;100045.81;;;14.88;100.00
74524;BME280;63074;44.696;10.358;2022-10-22T01:43:08;100018.81;;;15.03;100.00
74524;BME280;63074;44.696;10.358;2022-10-22T01:45:37;100002.84;;;14.97;100.00
74524;BME280;63074;44.696;10.358;2022-10-22T01:48:25;100005.25;;;14.93;100.00
74524;BME280;63074;44.696;10.358;2022-10-22T01:51:17;100010.66;;;14.93;100.00
74524;BME280;63074;44.696;10.358;2022-10-22T01:53:49;99981.75;;;14.99;100.00
74524;BME280;63074;44.696;10.358;2022-10-22T01:59:16;99974.22;;;14.48;100.00
74524;BME280;63074;44.696;10.358;2022-10-22T02:04:59;99981.44;;;14.95;100.00
74524;BME280;63074;44.696;10.358;2022-10-22T02:07:36;99964.44;;;15.10;100.00
74524;BME280;63074;44.696;10.358;2022-10-22T02:10:04;99967.94;;;15.10;100.00
74524;BME280;63074;44.696;10.358;2022-10-22T02:12:32;99978.78;;;15.00;100.00
74524;BME280;63074;44.696;10.358;2022-10-22T02:15:00;99996.63;;;15.06;100.00
74524;BME280;63074;44.696;10.358;2022-10-22T02:17:28;100002.88;;;15.12;100.00
74524;BME280;63074;44.696;10.358;2022-10-22T02:20:06;99985.28;;;15.14;100.00
74524;BME280;63074;44.696;10.358;2022-10-22T02:22:34;99977.38;;;14.93;100.00
74524;BME280;63074;44.696;10.358;2022-10-22T02:25:01;99962.53;;;15.00;100.00
74524;BME280;63074;44.696;10.358;2022-10-22T02:27:35;99987.41;;;14.92;100.00
74524;BME280;63074;44.696;10.358;2022-10-22T02:30:07;100011.44;;;14.83;100.00
74524;BME280;63074;44.696;10.358;2022-10-22T02:35:16;99985.81;;;15.11;100.00
74524;BME280;63074;44.696;10.358;2022-10-22T02:37:43;99985.59;;;15.23;100.00
74524;BME280;63074;44.696;10.358;2022-10-22T02:40:09;99979.28;;;14.97;100.00
74524;BME280;63074;44.696;10.358;2022-10-22T02:42:36;99965.91;;;14.60;100.00
74524;BME280;63074;44.696;10.358;2022-10-22T02:45:03;99973.31;;;14.90;100.00
74524;BME280;63074;44.696;10.358;2022-10-22T02:47:28;99969.47;;;14.81;100.00
74524;BME280;63074;44.696;10.358;2022-10-22T02:49:54;99986.88;;;14.95;100.00
74524;BME280;63074;44.696;10.358;2022-10-22T02:52:19;99977.66;;;14.91;100.00
74524;BME280;63074;44.696;10.358;2022-10-22T02:54:45;99967.66;;;15.02;100.00
74524;BME280;63074;44.696;10.358;2022-10-22T02:57:10;99971.72;;;15.04;100.00
74524;BME280;63074;44.696;10.358;2022-10-22T02:59:35;99959.16;;;14.68;100.00
74524;BME280;63074;44.696;10.358;2022-10-22T03:02:01;99985.13;;;14.74;100.00
74524;BME280;63074;44.696;10.358;2022-10-22T03:04:26;99967.03;;;14.74;100.00
74524;BME280;63074;44.696;10.358;2022-10-22T03:06:52;99939.47;;;14.82;100.00
74524;BME280;63074;44.696;10.358;2022-10-22T03:09:17;99940.59;;;14.92;100.00
74524;BME280;63074;44.696;10.358;2022-10-22T03:11:42;99945.16;;;14.86;100.00
74524;BME280;63074;44.696;10.358;2022-10-22T03:14:08;99945.13;;;14.76;100.00
74524;BME280;63074;44.696;10.358;2022-10-22T03:16:33;99948.41;;;14.88;100.00
74524;BME280;63074;44.696;10.358;2022-10-22T03:18:59;99958.75;;;15.01;100.00
74524;BME280;63074;44.696;10.358;2022-10-22T03:23:58;99974.59;;;14.67;100.00
74524;BME280;63074;44.696;10.358;2022-10-22T03:26:25;99985.13;;;14.64;100.00
74524;BME280;63074;44.696;10.358;2022-10-22T03:28:50;99969.47;;;14.71;100.00
74524;BME280;63074;44.696;10.358;2022-10-22T03:31:16;99964.59;;;14.78;100.00
74524;BME280;63074;44.696;10.358;2022-10-22T03:33:41;99953.72;;;14.58;100.00
74524;BME280;63074;44.696;10.358;2022-10-22T03:36:07;99954.63;;;14.83;100.00
74524;BME280;63074;44.696;10.358;2022-10-22T03:38:35;99933.81;;;14.89;100.00
74524;BME280;63074;44.696;10.358;2022-10-22T03:41:01;99926.81;;;14.98;100.00
74524;BME280;63074;44.696;10.358;2022-10-22T03:43:27;99928.41;;;14.89;100.00
74524;BME280;63074;44.696;10.358;2022-10-22T03:45:52;99919.25;;;15.00;100.00
74524;BME280;63074;44.696;10.358;2022-10-22T03:48:18;99917.06;;;15.12;100.00
74524;BME280;63074;44.696;10.358;2022-10-22T03:50:43;99913.81;;;15.00;100.00
74524;BME280;63074;44.696;10.358;2022-10-22T03:53:09;99918.41;;;15.05;100.00
74524;BME280;63074;44.696;10.358;2022-10-22T03:55:35;99919.53;;;15.19;100.00
74524;BME280;63074;44.696;10.358;2022-10-22T03:58:03;99910.56;;;15.08;100.00
74524;BME280;63074;44.696;10.358;2022-10-22T04:00:28;99922.22;;;15.09;100.00
74524;BME280;63074;44.696;10.358;2022-10-22T04:02:53;99909.53;;;15.25;100.00
74524;BME280;63074;44.696;10.358;2022-10-22T04:05:19;99926.25;;;15.06;100.00
74524;BME280;63074;44.696;10.358;2022-10-22T04:07:44;99925.78;;;15.25;100.00
74524;BME280;63074;44.696;10.358;2022-10-22T04:10:09;99930.06;;;15.00;100.00
74524;BME280;63074;44.696;10.358;2022-10-22T04:12:35;99938.44;;;15.04;100.00
74524;BME280;63074;44.696;10.358;2022-10-22T04:15:00;99940.13;;;15.25;100.00
74524;BME280;63074;44.696;10.358;2022-10-22T04:17:32;99935.50;;;15.36;100.00
74524;BME280;63074;44.696;10.358;2022-10-22T04:19:58;99938.75;;;15.17;100.00
74524;BME280;63074;44.696;10.358;2022-10-22T04:22:23;99936.06;;;15.28;100.00
74524;BME280;63074;44.696;10.358;2022-10-22T04:24:48;99939.84;;;15.27;100.00
74524;BME280;63074;44.696;10.358;2022-10-22T04:27:14;99917.38;;;15.26;100.00
74524;BME280;63074;44.696;10.358;2022-10-22T04:29:39;99924.66;;;15.00;100.00
74524;BME280;63074;44.696;10.358;2022-10-22T04:32:04;99939.03;;;15.26;100.00
74524;BME280;63074;44.696;10.358;2022-10-22T04:34:30;99940.38;;;15.34;100.00
74524;BME280;63074;44.696;10.358;2022-10-22T04:36:56;99950.13;;;15.19;100.00
74524;BME280;63074;44.696;10.358;2022-10-22T04:39:22;99920.44;;;16.65;100.00
74524;BME280;63074;44.696;10.358;2022-10-22T04:41:47;99874.69;;;17.32;100.00
74524;BME280;63074;44.696;10.358;2022-10-22T04:44:12;99886.47;;;17.17;100.00
74524;BME280;63074;44.696;10.358;2022-10-22T04:46:38;99860.88;;;18.15;100.00
74524;BME280;63074;44.696;10.358;2022-10-22T04:49:03;99869.50;;;17.64;100.00
74524;BME280;63074;44.696;10.358;2022-10-22T04:51:29;99863.56;;;17.91;100.00
74524;BME280;63074;44.696;10.358;2022-10-22T04:53:56;99859.97;;;18.19;100.00
74524;BME280;63074;44.696;10.358;2022-10-22T04:56:26;99859.50;;;18.60;100.00
74524;BME280;63074;44.696;10.358;2022-10-22T04:59:05;99858.06;;;18.44;100.00
74524;BME280;63074;44.696;10.358;2022-10-22T05:01:34;99854.28;;;18.82;100.00
74524;BME280;63074;44.696;10.358;2022-10-22T05:04:02;99850.81;;;18.77;100.00
74524;BME280;63074;44.696;10.358;2022-10-22T05:06:29;99855.31;;;18.86;100.00
74524;BME280;63074;44.696;10.358;2022-10-22T05:09:05;99853.22;;;19.16;100.00
74524;BME280;63074;44.696;10.358;2022-10-22T05:11:37;99849.06;;;19.56;100.00
74524;BME280;63074;44.696;10.358;2022-10-22T05:14:05;99848.38;;;19.45;100.00
74524;BME280;63074;44.696;10.358;2022-10-22T05:16:32;99840.66;;;19.52;100.00
74524;BME280;63074;44.696;10.358;2022-10-22T05:18:59;99839.97;;;19.61;100.00
74524;BME280;63074;44.696;10.358;2022-10-22T05:21:25;99842.03;;;19.50;100.00
74524;BME280;63074;44.696;10.358;2022-10-22T05:23:50;99848.25;;;19.04;100.00
74524;BME280;63074;44.696;10.358;2022-10-22T05:26:20;99841.78;;;18.63;100.00
74524;BME280;63074;44.696;10.358;2022-10-22T05:28:47;99844.16;;;18.45;100.00
74524;BME280;63074;44.696;10.358;2022-10-22T05:31:13;99833.19;;;18.50;100.00
74524;BME280;63074;44.696;10.358;2022-10-22T05:33:40;99834.09;;;19.21;100.00
74524;BME280;63074;44.696;10.358;2022-10-22T05:36:07;99826.16;;;19.38;100.00
74524;BME280;63074;44.696;10.358;2022-10-22T05:38:33;99833.59;;;19.65;100.00
74524;BME280;63074;44.696;10.358;2022-10-22T05:41:12;99840.78;;;19.29;100.00
74524;BME280;63074;44.696;10.358;2022-10-22T05:43:38;99830.72;;;19.43;100.00
74524;BME280;63074;44.696;10.358;2022-10-22T05:46:12;99833.44;;;19.62;100.00
74524;BME280;63074;44.696;10.358;2022-10-22T05:48:39;99825.19;;;19.48;100.00
74524;BME280;63074;44.696;10.358;2022-10-22T05:51:09;99832.63;;;19.61;100.00
74524;BME280;63074;44.696;10.358;2022-10-22T05:53:38;99841.19;;;19.54;100.00
74524;BME280;63074;44.696;10.358;2022-10-22T05:56:14;99836.25;;;19.57;100.00
74524;BME280;63074;44.696;10.358;2022-10-22T05:58:41;99835.56;;;19.46;100.00
74524;BME280;63074;44.696;10.358;2022-10-22T06:01:15;99845.41;;;19.28;100.00
74524;BME280;63074;44.696;10.358;2022-10-22T06:03:41;99854.34;;;19.15;100.00
74524;BME280;63074;44.696;10.358;2022-10-22T06:06:30;99851.69;;;19.10;100.00
74524;BME280;63074;44.696;10.358;2022-10-22T06:09:10;99859.78;;;19.15;100.00
74524;BME280;63074;44.696;10.358;2022-10-22T06:11:37;99847.13;;;19.38;100.00
74524;BME280;63074;44.696;10.358;2022-10-22T06:14:03;99844.72;;;19.55;100.00
74524;BME280;63074;44.696;10.358;2022-10-22T06:16:30;99857.97;;;19.43;100.00
74524;BME280;63074;44.696;10.358;2022-10-22T06:18:58;99866.34;;;19.46;100.00
74524;BME280;63074;44.696;10.358;2022-10-22T06:21:25;99877.88;;;19.25;100.00
74524;BME280;63074;44.696;10.358;2022-10-22T06:23:50;99878.66;;;19.44;100.00
74524;BME280;63074;44.696;10.358;2022-10-22T06:26:15;99885.72;;;19.45;100.00
74524;BME280;63074;44.696;10.358;2022-10-22T06:28:42;99871.16;;;19.68;100.00
74524;BME280;63074;44.696;10.358;2022-10-22T06:31:08;99871.69;;;19.70;100.00
74524;BME280;63074;44.696;10.358;2022-10-22T06:33:33;99867.75;;;19.76;100.00
74524;BME280;63074;44.696;10.358;2022-10-22T06:36:21;99877.13;;;19.57;100.00
74524;BME280;63074;44.696;10.358;2022-10-22T06:38:50;99880.44;;;19.53;100.00
74524;BME280;63074;44.696;10.358;2022-10-22T06:41:17;99874.50;;;19.65;100.00
74524;BME280;63074;44.696;10.358;2022-10-22T06:43:44;99887.75;;;19.72;100.00
74524;BME280;63074;44.696;10.358;2022-10-22T06:46:12;99895.91;;;19.72;100.00
74524;BME280;63074;44.696;10.358;2022-10-22T06:48:38;99899.00;;;19.98;100.00
74524;BME280;63074;44.696;10.358;2022-10-22T06:51:10;99900.59;;;19.85;100.00
74524;BME280;63074;44.696;10.358;2022-10-22T06:53:36;99897.06;;;19.98;100.00
74524;BME280;63074;44.696;10.358;2022-10-22T06:56:09;99909.69;;;19.94;100.00
74524;BME280;63074;44.696;10.358;2022-10-22T06:58:35;99917.25;;;19.83;100.00
74524;BME280;63074;44.696;10.358;2022-10-22T07:01:11;99921.09;;;18.75;100.00
74524;BME280;63074;44.696;10.358;2022-10-22T07:03:38;99936.63;;;17.98;100.00
74524;BME280;63074;44.696;10.358;2022-10-22T07:06:09;99940.56;;;17.86;100.00
74524;BME280;63074;44.696;10.358;2022-10-22T07:08:35;99960.03;;;17.20;100.00
74524;BME280;63074;44.696;10.358;2022-10-22T07:11:16;99971.59;;;16.92;100.00
74524;BME280;63074;44.696;10.358;2022-10-22T07:13:42;99986.16;;;17.06;100.00
74524;BME280;63074;44.696;10.358;2022-10-22T07:16:08;99981.75;;;17.26;100.00
74524;BME280;63074;44.696;10.358;2022-10-22T07:18:35;99977.22;;;17.50;100.00
74524;BME280;63074;44.696;10.358;2022-10-22T07:21:01;99972.72;;;17.74;100.00
74524;BME280;63074;44.696;10.358;2022-10-22T07:23:27;99975.75;;;17.68;100.00
74524;BME280;63074;44.696;10.358;2022-10-22T07:25:53;99981.50;;;17.95;100.00
74524;BME280;63074;44.696;10.358;2022-10-22T07:28:19;99982.94;;;18.16;100.00
74524;BME280;63074;44.696;10.358;2022-10-22T07:30:44;99982.22;;;18.35;100.00
74524;BME280;63074;44.696;10.358;2022-10-22T07:33:10;99983.31;;;18.34;100.00
74524;BME280;63074;44.696;10.358;2022-10-22T07:35:37;99989.56;;;18.34;100.00
74524;BME280;63074;44.696;10.358;2022-10-22T07:38:06;99986.38;;;18.51;100.00
74524;BME280;63074;44.696;10.358;2022-10-22T07:40:33;100005.53;;;18.41;100.00
74524;BME280;63074;44.696;10.358;2022-10-22T07:42:58;99999.63;;;18.58;100.00
74524;BME280;63074;44.696;10.358;2022-10-22T07:45:24;100000.22;;;18.54;100.00
74524;BME280;63074;44.696;10.358;2022-10-22T07:47:49;100009.00;;;18.75;100.00
74524;BME280;63074;44.696;10.358;2022-10-22T07:50:15;99995.72;;;19.11;100.00
74524;BME280;63074;44.696;10.358;2022-10-22T07:52:41;99989.16;;;19.55;100.00
74524;BME280;63074;44.696;10.358;2022-10-22T07:55:06;99980.50;;;19.48;100.00
74524;BME280;63074;44.696;10.358;2022-10-22T07:57:32;99992.41;;;19.57;100.00
74524;BME280;63074;44.696;10.358;2022-10-22T07:59:57;99996.34;;;19.65;100.00
74524;BME280;63074;44.696;10.358;2022-10-22T08:02:24;100007.25;;;19.83;100.00
74524;BME280;63074;44.696;10.358;2022-10-22T08:04:50;100001.81;;;19.97;100.00
74524;BME280;63074;44.696;10.358;2022-10-22T08:07:16;100014.13;;;20.27;100.00
74524;BME280;63074;44.696;10.358;2022-10-22T08:09:45;100014.09;;;20.87;100.00
74524;BME280;63074;44.696;10.358;2022-10-22T08:12:11;99999.53;;;20.64;100.00
74524;BME280;63074;44.696;10.358;2022-10-22T08:14:36;99999.63;;;20.86;100.00
74524;BME280;63074;44.696;10.358;2022-10-22T08:17:01;100006.97;;;21.13;100.00
74524;BME280;63074;44.696;10.358;2022-10-22T08:19:27;100007.88;;;21.09;100.00
74524;BME280;63074;44.696;10.358;2022-10-22T08:21:54;100009.84;;;20.95;100.00
74524;BME280;63074;44.696;10.358;2022-10-22T08:24:19;99991.41;;;21.28;100.00
74524;BME280;63074;44.696;10.358;2022-10-22T08:26:45;99992.69;;;21.16;100.00
74524;BME280;63074;44.696;10.358;2022-10-22T08:29:12;99992.94;;;21.06;100.00
74524;BME280;63074;44.696;10.358;2022-10-22T08:31:38;100018.03;;;21.22;100.00
74524;BME280;63074;44.696;10.358;2022-10-22T08:34:03;100015.28;;;21.08;100.00
74524;BME280;63074;44.696;10.358;2022-10-22T08:36:30;100041.88;;;19.83;100.00
74524;BME280;63074;44.696;10.358;2022-10-22T08:38:56;100055.50;;;19.03;100.00
74524;BME280;63074;44.696;10.358;2022-10-22T08:41:22;100077.41;;;18.69;100.00
74524;BME280;63074;44.696;10.358;2022-10-22T08:49:45;100112.34;;;18.51;100.00
74524;BME280;63074;44.696;10.358;2022-10-22T08:52:14;100103.84;;;18.58;100.00
74524;BME280;63074;44.696;10.358;2022-10-22T08:54:52;100102.28;;;18.52;100.00
74524;BME280;63074;44.696;10.358;2022-10-22T08:57:49;100109.53;;;18.67;100.00
74524;BME280;63074;44.696;10.358;2022-10-22T09:00:21;100097.47;;;19.02;100.00
74524;BME280;63074;44.696;10.358;2022-10-22T09:03:06;100103.06;;;19.10;100.00
74524;BME280;63074;44.696;10.358;2022-10-22T09:05:58;100102.38;;;19.42;100.00
74524;BME280;63074;44.696;10.358;2022-10-22T09:08:26;100094.22;;;19.42;100.00
74524;BME280;63074;44.696;10.358;2022-10-22T09:11:02;100102.22;;;19.58;100.00
74524;BME280;63074;44.696;10.358;2022-10-22T09:13:30;100096.31;;;19.69;100.00
74524;BME280;63074;44.696;10.358;2022-10-22T09:16:17;100106.81;;;19.62;100.00
74524;BME280;63074;44.696;10.358;2022-10-22T09:19:26;100111.38;;;19.43;100.00
74524;BME280;63074;44.696;10.358;2022-10-22T09:24:38;100109.41;;;19.48;100.00
74524;BME280;63074;44.696;10.358;2022-10-22T09:27:11;100127.72;;;19.43;100.00
74524;BME280;63074;44.696;10.358;2022-10-22T09:29:37;100107.81;;;19.23;100.00
74524;BME280;63074;44.696;10.358;2022-10-22T09:32:02;100116.56;;;19.20;100.00
74524;BME280;63074;44.696;10.358;2022-10-22T09:34:28;100104.94;;;19.76;100.00
74524;BME280;63074;44.696;10.358;2022-10-22T09:37:04;100107.09;;;19.79;100.00
74524;BME280;63074;44.696;10.358;2022-10-22T09:39:33;100099.09;;;20.20;100.00
74524;BME280;63074;44.696;10.358;2022-10-22T09:42:01;100099.56;;;20.09;100.00
74524;BME280;63074;44.696;10.358;2022-10-22T09:44:32;100097.31;;;20.62;100.00
74524;BME280;63074;44.696;10.358;2022-10-22T09:46:58;100101.16;;;20.61;100.00
74524;BME280;63074;44.696;10.358;2022-10-22T09:49:23;100100.34;;;20.61;100.00
74524;BME280;63074;44.696;10.358;2022-10-22T09:51:55;100101.09;;;21.07;100.00
74524;BME280;63074;44.696;10.358;2022-10-22T09:54:36;100089.63;;;21.60;100.00
74524;BME280;63074;44.696;10.358;2022-10-22T09:57:20;100103.53;;;21.50;100.00
74524;BME280;63074;44.696;10.358;2022-10-22T09:59:48;100102.84;;;21.80;100.00
74524;BME280;63074;44.696;10.358;2022-10-22T10:02:21;100104.44;;;21.59;100.00
74524;BME280;63074;44.696;10.358;2022-10-22T10:04:55;100106.34;;;21.17;100.00
74524;BME280;63074;44.696;10.358;2022-10-22T10:07:26;100094.53;;;21.22;100.00
74524;BME280;63074;44.696;10.358;2022-10-22T10:09:52;100092.50;;;21.14;100.00
74524;BME280;63074;44.696;10.358;2022-10-22T10:17:39;100120.09;;;21.67;100.00
74524;BME280;63074;44.696;10.358;2022-10-22T10:31:26;100125.34;;;20.68;100.00
74524;BME280;63074;44.696;10.358;2022-10-22T10:37:23;100121.94;;;20.89;100.00
74524;BME280;63074;44.696;10.358;2022-10-22T10:42:43;100129.63;;;21.01;100.00
74524;BME280;63074;44.696;10.358;2022-10-22T10:45:14;100135.09;;;21.01;100.00
74524;BME280;63074;44.696;10.358;2022-10-22T10:56:00;100146.53;;;21.17;100.00
74524;BME280;63074;44.696;10.358;2022-10-22T10:58:58;100135.22;;;21.51;100.00
74524;BME280;63074;44.696;10.358;2022-10-22T11:06:53;100114.75;;;22.65;100.00
74524;BME280;63074;44.696;10.358;2022-10-22T11:12:30;100118.78;;;21.65;100.00
74524;BME280;63074;44.696;10.358;2022-10-22T11:15:04;100124.78;;;21.53;100.00
74524;BME280;63074;44.696;10.358;2022-10-22T11:17:39;100107.41;;;21.71;100.00
74524;BME280;63074;44.696;10.358;2022-10-22T11:20:13;100100.84;;;22.31;100.00
74524;BME280;63074;44.696;10.358;2022-10-22T11:22:52;100096.88;;;22.68;100.00
74524;BME280;63074;44.696;10.358;2022-10-22T11:25:23;100109.47;;;22.24;100.00
74524;BME280;63074;44.696;10.358;2022-10-22T11:28:08;100114.69;;;21.76;100.00
74524;BME280;63074;44.696;10.358;2022-10-22T11:30:37;100109.00;;;21.86;100.00
74524;BME280;63074;44.696;10.358;2022-10-22T11:33:06;100108.19;;;21.85;100.00
74524;BME280;63074;44.696;10.358;2022-10-22T11:35:37;100116.22;;;22.40;100.00
74524;BME280;63074;44.696;10.358;2022-10-22T11:38:06;100105.63;;;22.25;100.00
74524;BME280;63074;44.696;10.358;2022-10-22T11:40:43;100107.56;;;22.02;100.00
74524;BME280;63074;44.696;10.358;2022-10-22T11:43:11;100121.47;;;21.78;100.00
74524;BME280;63074;44.696;10.358;2022-10-22T11:46:24;100117.22;;;21.86;100.00
74524;BME280;63074;44.696;10.358;2022-10-22T11:51:40;100121.03;;;21.49;100.00
74524;BME280;63074;44.696;10.358;2022-10-22T11:59:56;100130.84;;;21.50;100.00
74524;BME280;63074;44.696;10.358;2022-10-22T12:05:16;100139.97;;;21.59;100.00
74524;BME280;63074;44.696;10.358;2022-10-22T12:07:56;100124.97;;;21.43;100.00
74524;BME280;63074;44.696;10.358;2022-10-22T12:10:34;100139.56;;;21.38;100.00
74524;BME280;63074;44.696;10.358;2022-10-22T12:13:26;100131.25;;;21.43;100.00
74524;BME280;63074;44.696;10.358;2022-10-22T12:15:56;100142.59;;;21.37;100.00
74524;BME280;63074;44.696;10.358;2022-10-22T12:18:24;100142.59;;;21.37;100.00
74524;BME280;63074;44.696;10.358;2022-10-22T12:20:52;100132.47;;;21.37;100.00
74524;BME280;63074;44.696;10.358;2022-10-22T12:23:20;100132.81;;;21.36;100.00
74524;BME280;63074;44.696;10.358;2022-10-22T12:25:48;100140.41;;;21.25;100.00
74524;BME280;63074;44.696;10.358;2022-10-22T12:28:13;100144.56;;;21.36;100.00
74524;BME280;63074;44.696;10.358;2022-10-22T12:30:40;100132.31;;;21.34;100.00
74524;BME280;63074;44.696;10.358;2022-10-22T12:33:15;100143.03;;;21.30;100.00
74524;BME280;63074;44.696;10.358;2022-10-22T12:35:44;100146.06;;;21.29;100.00
74524;BME280;63074;44.696;10.358;2022-10-22T12:38:13;100153.75;;;21.27;100.00
74524;BME280;63074;44.696;10.358;2022-10-22T12:40:40;100147.47;;;21.26;100.00
74524;BME280;63074;44.696;10.358;2022-10-22T12:43:14;100146.66;;;21.26;100.00
74524;BME280;63074;44.696;10.358;2022-10-22T12:45:42;100143.50;;;21.18;100.00
74524;BME280;63074;44.696;10.358;2022-10-22T12:48:23;100151.13;;;21.21;100.00
74524;BME280;63074;44.696;10.358;2022-10-22T12:50:53;100155.34;;;21.14;100.00
74524;BME280;63074;44.696;10.358;2022-10-22T12:53:32;100165.75;;;20.98;100.00
74524;BME280;63074;44.696;10.358;2022-10-22T12:56:02;100163.03;;;20.98;100.00
74524;BME280;63074;44.696;10.358;2022-10-22T12:58:33;100162.16;;;20.84;100.00
74524;BME280;63074;44.696;10.358;2022-10-22T13:01:02;100153.47;;;20.82;100.00
74524;BME280;63074;44.696;10.358;2022-10-22T13:03:37;100154.88;;;20.79;100.00
74524;BME280;63074;44.696;10.358;2022-10-22T13:11:23;100181.88;;;20.81;100.00
74524;BME280;63074;44.696;10.358;2022-10-22T13:14:12;100185.16;;;20.97;100.00
74524;BME280;63074;44.696;10.358;2022-10-22T13:16:39;100181.41;;;20.93;100.00
74524;BME280;63074;44.696;10.358;2022-10-22T13:19:31;100166.56;;;20.99;100.00
74524;BME280;63074;44.696;10.358;2022-10-22T13:21:50;100179.38;;;20.84;100.00
74524;BME280;63074;44.696;10.358;2022-10-22T13:24:21;100179.16;;;20.81;100.00
74524;BME280;63074;44.696;10.358;2022-10-22T13:26:51;100163.19;;;20.88;100.00
74524;BME280;63074;44.696;10.358;2022-10-22T13:29:20;100178.97;;;20.91;100.00
74524;BME280;63074;44.696;10.358;2022-10-22T13:31:51;100167.34;;;20.85;100.00
74524;BME280;63074;44.696;10.358;2022-10-22T13:34:21;100174.72;;;20.85;100.00
74524;BME280;63074;44.696;10.358;2022-10-22T13:36:48;100170.78;;;20.91;100.00
74524;BME280;63074;44.696;10.358;2022-10-22T13:39:17;100183.63;;;20.90;100.00
74524;BME280;63074;44.696;10.358;2022-10-22T13:41:44;100190.72;;;20.92;100.00
74524;BME280;63074;44.696;10.358;2022-10-22T13:44:09;100185.25;;;20.92;100.00
74524;BME280;63074;44.696;10.358;2022-10-22T13:46:35;100174.75;;;21.12;100.00
74524;BME280;63074;44.696;10.358;2022-10-22T13:49:11;100173.19;;;21.25;100.00
74524;BME280;63074;44.696;10.358;2022-10-22T13:51:39;100172.56;;;21.42;100.00
74524;BME280;63074;44.696;10.358;2022-10-22T13:54:25;100177.94;;;21.47;100.00
74524;BME280;63074;44.696;10.358;2022-10-22T13:56:50;100186.66;;;21.49;100.00
74524;BME280;63074;44.696;10.358;2022-10-22T13:59:17;100185.94;;;21.43;100.00
74524;BME280;63074;44.696;10.358;2022-10-22T14:01:43;100186.44;;;21.45;100.00
74524;BME280;63074;44.696;10.358;2022-10-22T14:04:11;100187.56;;;21.31;100.00
74524;BME280;63074;44.696;10.358;2022-10-22T14:06:39;100191.72;;;21.28;100.00
74524;BME280;63074;44.696;10.358;2022-10-22T14:09:06;100196.06;;;21.29;100.00
74524;BME280;63074;44.696;10.358;2022-10-22T14:11:35;100209.38;;;21.17;100.00
74524;BME280;63074;44.696;10.358;2022-10-22T14:14:01;100200.53;;;20.93;100.00
74524;BME280;63074;44.696;10.358;2022-10-22T14:16:33;100211.13;;;20.80;100.00
74524;BME280;63074;44.696;10.358;2022-10-22T14:19:02;100200.19;;;20.80;100.00